sensor_id;sensor_type;location;lat;lon;timestamp;P1;durP1;ratioP1;P2;durP2;ratioP2
64235;SDS011;50564;47.402;9.740;2022-08-25T00:00:22;5.57;;;2.90;;
64235;SDS011;50564;47.402;9.740;2022-08-25T00:05:24;3.53;;;2.38;;
64235;SDS011;50564;47.402;9.740;2022-08-25T00:10:29;3.83;;;2.33;;
64235;SDS011;50564;47.402;9.740;2022-08-25T00:15:29;2.80;;;2.30;;
64235;SDS011;50564;47.402;9.740;2022-08-25T00:20:31;2.72;;;2.28;;
64235;SDS011;50564;47.402;9.740;2022-08-25T00:25:32;2.88;;;2.30;;
64235;SDS011;50564;47.402;9.740;2022-08-25T00:30:32;4.75;;;3.33;;
64235;SDS011;50564;47.402;9.740;2022-08-25T00:35:33;3.38;;;2.60;;
64235;SDS011;50564;47.402;9.740;2022-08-25T00:40:35;4.75;;;2.60;;
64235;SDS011;50564;47.402;9.740;2022-08-25T00:45:37;5.32;;;2.30;;
64235;SDS011;50564;47.402;9.740;2022-08-25T00:50:39;5.68;;;2.75;;
64235;SDS011;50564;47.402;9.740;2022-08-25T00:55:39;4.55;;;2.40;;
64235;SDS011;50564;47.402;9.740;2022-08-25T01:00:43;4.18;;;2.83;;
64235;SDS011;50564;47.402;9.740;2022-08-25T01:05:46;4.88;;;2.47;;
64235;SDS011;50564;47.402;9.740;2022-08-25T01:10:47;3.20;;;2.53;;
64235;SDS011;50564;47.402;9.740;2022-08-25T01:15:49;3.63;;;2.33;;
64235;SDS011;50564;47.402;9.740;2022-08-25T01:20:56;3.90;;;2.67;;
64235;SDS011;50564;47.402;9.740;2022-08-25T01:26:03;2.90;;;2.35;;
64235;SDS011;50564;47.402;9.740;2022-08-25T01:31:06;4.55;;;2.35;;
64235;SDS011;50564;47.402;9.740;2022-08-25T01:36:07;3.78;;;2.53;;
64235;SDS011;50564;47.402;9.740;2022-08-25T01:41:08;2.92;;;2.38;;
64235;SDS011;50564;47.402;9.740;2022-08-25T01:46:08;4.80;;;2.83;;
64235;SDS011;50564;47.402;9.740;2022-08-25T01:51:09;4.93;;;2.70;;
64235;SDS011;50564;47.402;9.740;2022-08-25T01:56:10;2.95;;;2.65;;
64235;SDS011;50564;47.402;9.740;2022-08-25T02:01:15;5.78;;;2.92;;
64235;SDS011;50564;47.402;9.740;2022-08-25T02:06:20;4.07;;;3.00;;
64235;SDS011;50564;47.402;9.740;2022-08-25T02:11:23;4.43;;;2.70;;
64235;SDS011;50564;47.402;9.740;2022-08-25T02:16:25;4.97;;;3.00;;
64235;SDS011;50564;47.402;9.740;2022-08-25T02:21:28;5.75;;;2.97;;
64235;SDS011;50564;47.402;9.740;2022-08-25T02:26:29;2.83;;;2.63;;
64235;SDS011;50564;47.402;9.740;2022-08-25T02:31:30;3.42;;;2.75;;
64235;SDS011;50564;47.402;9.740;2022-08-25T02:36:31;4.97;;;3.03;;
64235;SDS011;50564;47.402;9.740;2022-08-25T02:41:32;6.28;;;3.22;;
64235;SDS011;50564;47.402;9.740;2022-08-25T02:46:33;5.72;;;2.72;;
64235;SDS011;50564;47.402;9.740;2022-08-25T02:51:34;3.47;;;2.55;;
64235;SDS011;50564;47.402;9.740;2022-08-25T02:56:35;3.53;;;2.50;;
64235;SDS011;50564;47.402;9.740;2022-08-25T03:01:36;4.50;;;2.80;;
64235;SDS011;50564;47.402;9.740;2022-08-25T03:06:36;3.65;;;2.78;;
64235;SDS011;50564;47.402;9.740;2022-08-25T03:11:37;5.30;;;3.17;;
64235;SDS011;50564;47.402;9.740;2022-08-25T03:16:38;4.53;;;3.10;;
64235;SDS011;50564;47.402;9.740;2022-08-25T03:21:39;4.10;;;2.90;;
64235;SDS011;50564;47.402;9.740;2022-08-25T03:26:40;3.35;;;2.92;;
64235;SDS011;50564;47.402;9.740;2022-08-25T03:31:53;6.40;;;2.90;;
64235;SDS011;50564;47.402;9.740;2022-08-25T03:36:55;4.47;;;3.13;;
64235;SDS011;50564;47.402;9.740;2022-08-25T03:41:56;4.30;;;3.20;;
64235;SDS011;50564;47.402;9.740;2022-08-25T03:46:56;4.43;;;3.00;;
64235;SDS011;50564;47.402;9.740;2022-08-25T03:51:57;4.75;;;3.33;;
64235;SDS011;50564;47.402;9.740;2022-08-25T03:56:58;3.65;;;2.63;;
64235;SDS011;50564;47.402;9.740;2022-08-25T04:01:59;4.50;;;3.20;;
64235;SDS011;50564;47.402;9.740;2022-08-25T04:07:00;5.07;;;3.10;;
64235;SDS011;50564;47.402;9.740;2022-08-25T04:12:01;4.47;;;2.78;;
64235;SDS011;50564;47.402;9.740;2022-08-25T04:17:03;4.90;;;3.03;;
64235;SDS011;50564;47.402;9.740;2022-08-25T04:22:03;4.53;;;2.90;;
64235;SDS011;50564;47.402;9.740;2022-08-25T04:27:04;3.72;;;3.35;;
64235;SDS011;50564;47.402;9.740;2022-08-25T04:32:05;4.15;;;2.72;;
64235;SDS011;50564;47.402;9.740;2022-08-25T04:37:05;5.07;;;3.08;;
64235;SDS011;50564;47.402;9.740;2022-08-25T04:42:07;3.88;;;3.33;;
64235;SDS011;50564;47.402;9.740;2022-08-25T04:47:07;6.38;;;4.07;;
64235;SDS011;50564;47.402;9.740;2022-08-25T04:52:10;6.28;;;3.33;;
64235;SDS011;50564;47.402;9.740;2022-08-25T04:57:10;3.75;;;3.22;;
64235;SDS011;50564;47.402;9.740;2022-08-25T05:02:11;5.70;;;3.50;;
64235;SDS011;50564;47.402;9.740;2022-08-25T05:07:12;5.35;;;3.33;;
64235;SDS011;50564;47.402;9.740;2022-08-25T05:12:12;5.63;;;3.70;;
64235;SDS011;50564;47.402;9.740;2022-08-25T05:17:13;5.10;;;3.80;;
64235;SDS011;50564;47.402;9.740;2022-08-25T05:22:13;5.47;;;3.83;;
64235;SDS011;50564;47.402;9.740;2022-08-25T05:27:14;5.95;;;3.67;;
64235;SDS011;50564;47.402;9.740;2022-08-25T05:32:15;6.38;;;4.18;;
64235;SDS011;50564;47.402;9.740;2022-08-25T05:37:15;7.30;;;3.90;;
64235;SDS011;50564;47.402;9.740;2022-08-25T05:42:16;4.85;;;3.45;;
64235;SDS011;50564;47.402;9.740;2022-08-25T05:47:17;7.00;;;3.40;;
64235;SDS011;50564;47.402;9.740;2022-08-25T05:52:17;3.78;;;2.75;;
64235;SDS011;50564;47.402;9.740;2022-08-25T05:57:18;5.70;;;2.90;;
64235;SDS011;50564;47.402;9.740;2022-08-25T06:02:19;6.10;;;2.92;;
64235;SDS011;50564;47.402;9.740;2022-08-25T06:07:38;3.65;;;2.78;;
64235;SDS011;50564;47.402;9.740;2022-08-25T06:12:40;4.97;;;3.47;;
64235;SDS011;50564;47.402;9.740;2022-08-25T06:17:45;6.15;;;3.40;;
64235;SDS011;50564;47.402;9.740;2022-08-25T06:22:47;4.07;;;2.90;;
64235;SDS011;50564;47.402;9.740;2022-08-25T06:27:48;3.25;;;2.50;;
64235;SDS011;50564;47.402;9.740;2022-08-25T06:32:49;3.35;;;2.28;;
64235;SDS011;50564;47.402;9.740;2022-08-25T06:37:50;4.97;;;2.83;;
64235;SDS011;50564;47.402;9.740;2022-08-25T06:42:50;5.18;;;3.17;;
64235;SDS011;50564;47.402;9.740;2022-08-25T06:47:51;4.45;;;3.33;;
64235;SDS011;50564;47.402;9.740;2022-08-25T06:52:53;4.45;;;3.08;;
64235;SDS011;50564;47.402;9.740;2022-08-25T06:57:54;7.25;;;3.45;;
64235;SDS011;50564;47.402;9.740;2022-08-25T07:02:55;7.35;;;3.10;;
64235;SDS011;50564;47.402;9.740;2022-08-25T07:07:56;4.95;;;4.00;;
64235;SDS011;50564;47.402;9.740;2022-08-25T07:12:56;4.57;;;3.25;;
64235;SDS011;50564;47.402;9.740;2022-08-25T07:17:57;7.43;;;3.00;;
64235;SDS011;50564;47.402;9.740;2022-08-25T07:22:58;5.90;;;3.25;;
64235;SDS011;50564;47.402;9.740;2022-08-25T07:27:58;4.80;;;2.85;;
64235;SDS011;50564;47.402;9.740;2022-08-25T07:32:59;6.38;;;3.35;;
64235;SDS011;50564;47.402;9.740;2022-08-25T07:38:00;5.63;;;3.13;;
64235;SDS011;50564;47.402;9.740;2022-08-25T07:43:02;7.88;;;3.75;;
64235;SDS011;50564;47.402;9.740;2022-08-25T07:48:06;9.10;;;3.95;;
64235;SDS011;50564;47.402;9.740;2022-08-25T07:53:09;10.05;;;5.30;;
64235;SDS011;50564;47.402;9.740;2022-08-25T07:58:10;9.15;;;4.57;;
64235;SDS011;50564;47.402;9.740;2022-08-25T08:03:11;11.90;;;4.32;;
64235;SDS011;50564;47.402;9.740;2022-08-25T08:08:12;9.00;;;4.50;;
64235;SDS011;50564;47.402;9.740;2022-08-25T08:13:12;8.27;;;4.53;;
64235;SDS011;50564;47.402;9.740;2022-08-25T08:18:13;6.95;;;4.03;;
64235;SDS011;50564;47.402;9.740;2022-08-25T08:23:15;9.75;;;4.00;;
64235;SDS011;50564;47.402;9.740;2022-08-25T08:28:16;8.65;;;3.85;;
64235;SDS011;50564;47.402;9.740;2022-08-25T08:33:16;9.68;;;4.53;;
64235;SDS011;50564;47.402;9.740;2022-08-25T08:38:17;6.97;;;4.60;;
64235;SDS011;50564;47.402;9.740;2022-08-25T08:43:18;11.23;;;3.70;;
64235;SDS011;50564;47.402;9.740;2022-08-25T08:48:31;5.45;;;3.75;;
64235;SDS011;50564;47.402;9.740;2022-08-25T08:59:12;7.55;;;3.92;;
64235;SDS011;50564;47.402;9.740;2022-08-25T09:09:36;5.28;;;3.22;;
64235;SDS011;50564;47.402;9.740;2022-08-25T09:25:28;4.75;;;3.15;;
64235;SDS011;50564;47.402;9.740;2022-08-25T09:30:40;4.78;;;3.15;;
64235;SDS011;50564;47.402;9.740;2022-08-25T09:36:11;7.05;;;3.67;;
64235;SDS011;50564;47.402;9.740;2022-08-25T09:41:14;6.35;;;3.30;;
64235;SDS011;50564;47.402;9.740;2022-08-25T09:46:24;6.35;;;3.58;;
64235;SDS011;50564;47.402;9.740;2022-08-25T09:51:32;6.78;;;3.50;;
64235;SDS011;50564;47.402;9.740;2022-08-25T09:56:35;4.60;;;3.23;;
64235;SDS011;50564;47.402;9.740;2022-08-25T10:02:24;11.35;;;3.83;;
64235;SDS011;50564;47.402;9.740;2022-08-25T10:07:29;6.93;;;3.50;;
64235;SDS011;50564;47.402;9.740;2022-08-25T10:12:35;7.50;;;4.70;;
64235;SDS011;50564;47.402;9.740;2022-08-25T10:17:41;7.60;;;3.90;;
64235;SDS011;50564;47.402;9.740;2022-08-25T10:22:43;3.92;;;3.15;;
64235;SDS011;50564;47.402;9.740;2022-08-25T10:54:26;8.75;;;4.30;;
64235;SDS011;50564;47.402;9.740;2022-08-25T10:59:50;8.02;;;3.60;;
64235;SDS011;50564;47.402;9.740;2022-08-25T11:10:10;7.10;;;4.28;;
64235;SDS011;50564;47.402;9.740;2022-08-25T11:21:10;5.80;;;3.70;;
64235;SDS011;50564;47.402;9.740;2022-08-25T11:26:15;7.22;;;4.60;;
64235;SDS011;50564;47.402;9.740;2022-08-25T11:31:19;10.57;;;4.57;;
64235;SDS011;50564;47.402;9.740;2022-08-25T11:51:59;5.32;;;4.07;;
64235;SDS011;50564;47.402;9.740;2022-08-25T11:57:08;6.65;;;4.57;;
64235;SDS011;50564;47.402;9.740;2022-08-25T12:08:05;6.82;;;3.88;;
64235;SDS011;50564;47.402;9.740;2022-08-25T12:13:26;6.53;;;4.18;;
64235;SDS011;50564;47.402;9.740;2022-08-25T12:18:42;4.63;;;3.47;;
64235;SDS011;50564;47.402;9.740;2022-08-25T12:24:03;6.53;;;3.35;;
64235;SDS011;50564;47.402;9.740;2022-08-25T12:29:14;4.50;;;2.92;;
64235;SDS011;50564;47.402;9.740;2022-08-25T12:39:34;5.22;;;3.15;;
64235;SDS011;50564;47.402;9.740;2022-08-25T12:44:44;7.50;;;2.80;;
64235;SDS011;50564;47.402;9.740;2022-08-25T12:49:48;3.20;;;2.60;;
64235;SDS011;50564;47.402;9.740;2022-08-25T12:54:51;4.30;;;2.60;;
64235;SDS011;50564;47.402;9.740;2022-08-25T13:00:04;3.75;;;2.70;;
64235;SDS011;50564;47.402;9.740;2022-08-25T13:20:36;4.18;;;2.53;;
64235;SDS011;50564;47.402;9.740;2022-08-25T13:25:38;6.88;;;2.90;;
64235;SDS011;50564;47.402;9.740;2022-08-25T13:30:54;5.53;;;2.72;;
64235;SDS011;50564;47.402;9.740;2022-08-25T13:35:56;3.92;;;2.53;;
64235;SDS011;50564;47.402;9.740;2022-08-25T13:41:20;4.05;;;2.60;;
64235;SDS011;50564;47.402;9.740;2022-08-25T13:46:23;4.78;;;2.88;;
64235;SDS011;50564;47.402;9.740;2022-08-25T13:51:27;4.88;;;2.20;;
64235;SDS011;50564;47.402;9.740;2022-08-25T14:01:33;4.55;;;2.30;;
64235;SDS011;50564;47.402;9.740;2022-08-25T14:06:43;4.20;;;2.38;;
64235;SDS011;50564;47.402;9.740;2022-08-25T14:11:47;4.45;;;2.42;;
64235;SDS011;50564;47.402;9.740;2022-08-25T14:17:00;5.82;;;2.92;;
64235;SDS011;50564;47.402;9.740;2022-08-25T14:22:04;3.72;;;2.22;;
64235;SDS011;50564;47.402;9.740;2022-08-25T14:27:05;5.30;;;2.72;;
64235;SDS011;50564;47.402;9.740;2022-08-25T14:32:05;3.80;;;2.78;;
64235;SDS011;50564;47.402;9.740;2022-08-25T14:37:13;3.20;;;2.50;;
64235;SDS011;50564;47.402;9.740;2022-08-25T14:42:16;4.05;;;2.30;;
64235;SDS011;50564;47.402;9.740;2022-08-25T14:47:20;5.45;;;2.70;;
64235;SDS011;50564;47.402;9.740;2022-08-25T14:52:23;5.70;;;2.53;;
64235;SDS011;50564;47.402;9.740;2022-08-25T14:57:26;6.72;;;2.60;;
64235;SDS011;50564;47.402;9.740;2022-08-25T15:02:27;6.65;;;2.85;;
64235;SDS011;50564;47.402;9.740;2022-08-25T15:07:28;5.00;;;2.50;;
64235;SDS011;50564;47.402;9.740;2022-08-25T15:12:49;4.70;;;2.22;;
64235;SDS011;50564;47.402;9.740;2022-08-25T15:17:50;3.80;;;2.40;;
64235;SDS011;50564;47.402;9.740;2022-08-25T15:22:51;4.88;;;2.70;;
64235;SDS011;50564;47.402;9.740;2022-08-25T15:27:51;6.45;;;2.58;;
64235;SDS011;50564;47.402;9.740;2022-08-25T15:32:53;4.05;;;2.33;;
64235;SDS011;50564;47.402;9.740;2022-08-25T15:37:54;2.45;;;2.00;;
64235;SDS011;50564;47.402;9.740;2022-08-25T15:42:54;3.10;;;2.25;;
64235;SDS011;50564;47.402;9.740;2022-08-25T15:47:55;5.05;;;2.58;;
64235;SDS011;50564;47.402;9.740;2022-08-25T15:52:58;4.32;;;2.90;;
64235;SDS011;50564;47.402;9.740;2022-08-25T15:57:59;3.53;;;2.53;;
64235;SDS011;50564;47.402;9.740;2022-08-25T16:03:00;5.35;;;2.50;;
64235;SDS011;50564;47.402;9.740;2022-08-25T16:08:01;4.68;;;2.22;;
64235;SDS011;50564;47.402;9.740;2022-08-25T16:13:02;5.75;;;2.50;;
64235;SDS011;50564;47.402;9.740;2022-08-25T16:18:04;3.50;;;2.17;;
64235;SDS011;50564;47.402;9.740;2022-08-25T16:23:05;3.30;;;2.45;;
64235;SDS011;50564;47.402;9.740;2022-08-25T16:28:05;4.13;;;2.30;;
64235;SDS011;50564;47.402;9.740;2022-08-25T16:33:06;4.05;;;2.78;;
64235;SDS011;50564;47.402;9.740;2022-08-25T16:38:07;4.40;;;2.72;;
64235;SDS011;50564;47.402;9.740;2022-08-25T16:43:09;4.10;;;3.35;;
64235;SDS011;50564;47.402;9.740;2022-08-25T16:48:09;6.55;;;3.33;;
64235;SDS011;50564;47.402;9.740;2022-08-25T16:53:10;4.93;;;3.30;;
64235;SDS011;50564;47.402;9.740;2022-08-25T16:58:29;5.22;;;3.30;;
64235;SDS011;50564;47.402;9.740;2022-08-25T17:03:32;6.18;;;3.78;;
64235;SDS011;50564;47.402;9.740;2022-08-25T17:08:34;6.10;;;3.35;;
64235;SDS011;50564;47.402;9.740;2022-08-25T17:13:36;4.32;;;3.30;;
64235;SDS011;50564;47.402;9.740;2022-08-25T17:18:37;5.90;;;3.80;;
64235;SDS011;50564;47.402;9.740;2022-08-25T17:23:39;5.50;;;3.70;;
64235;SDS011;50564;47.402;9.740;2022-08-25T17:28:42;5.70;;;3.80;;
64235;SDS011;50564;47.402;9.740;2022-08-25T17:33:43;6.05;;;4.03;;
64235;SDS011;50564;47.402;9.740;2022-08-25T17:38:44;6.30;;;3.50;;
64235;SDS011;50564;47.402;9.740;2022-08-25T17:43:45;6.05;;;4.40;;
64235;SDS011;50564;47.402;9.740;2022-08-25T17:48:45;7.65;;;4.00;;
64235;SDS011;50564;47.402;9.740;2022-08-25T17:53:47;5.22;;;4.30;;
64235;SDS011;50564;47.402;9.740;2022-08-25T17:58:48;6.07;;;3.92;;
64235;SDS011;50564;47.402;9.740;2022-08-25T18:03:50;8.77;;;5.07;;
64235;SDS011;50564;47.402;9.740;2022-08-25T18:08:51;11.40;;;5.18;;
64235;SDS011;50564;47.402;9.740;2022-08-25T18:13:52;8.57;;;5.30;;
64235;SDS011;50564;47.402;9.740;2022-08-25T18:18:54;5.80;;;4.53;;
64235;SDS011;50564;47.402;9.740;2022-08-25T18:23:54;6.25;;;4.60;;
64235;SDS011;50564;47.402;9.740;2022-08-25T18:28:55;6.88;;;4.43;;
64235;SDS011;50564;47.402;9.740;2022-08-25T18:33:56;9.35;;;4.63;;
64235;SDS011;50564;47.402;9.740;2022-08-25T18:38:56;5.68;;;4.13;;
64235;SDS011;50564;47.402;9.740;2022-08-25T18:44:16;10.70;;;7.53;;
64235;SDS011;50564;47.402;9.740;2022-08-25T18:49:17;8.35;;;5.57;;
64235;SDS011;50564;47.402;9.740;2022-08-25T18:54:18;10.20;;;5.90;;
64235;SDS011;50564;47.402;9.740;2022-08-25T18:59:20;5.28;;;4.50;;
64235;SDS011;50564;47.402;9.740;2022-08-25T19:04:21;5.22;;;4.32;;
64235;SDS011;50564;47.402;9.740;2022-08-25T19:09:22;5.28;;;4.45;;
64235;SDS011;50564;47.402;9.740;2022-08-25T19:14:22;6.60;;;4.57;;
64235;SDS011;50564;47.402;9.740;2022-08-25T19:19:23;5.80;;;4.75;;
64235;SDS011;50564;47.402;9.740;2022-08-25T19:24:24;6.93;;;4.70;;
64235;SDS011;50564;47.402;9.740;2022-08-25T19:29:24;7.72;;;4.45;;
64235;SDS011;50564;47.402;9.740;2022-08-25T19:34:27;6.95;;;4.15;;
64235;SDS011;50564;47.402;9.740;2022-08-25T19:39:30;5.80;;;4.65;;
64235;SDS011;50564;47.402;9.740;2022-08-25T19:44:32;6.82;;;4.18;;
64235;SDS011;50564;47.402;9.740;2022-08-25T19:49:33;8.32;;;4.28;;
64235;SDS011;50564;47.402;9.740;2022-08-25T19:54:35;5.93;;;4.70;;
64235;SDS011;50564;47.402;9.740;2022-08-25T19:59:42;5.80;;;4.40;;
64235;SDS011;50564;47.402;9.740;2022-08-25T20:04:48;4.82;;;4.10;;
64235;SDS011;50564;47.402;9.740;2022-08-25T20:09:53;8.40;;;4.50;;
64235;SDS011;50564;47.402;9.740;2022-08-25T20:14:57;5.60;;;3.90;;
64235;SDS011;50564;47.402;9.740;2022-08-25T20:20:00;6.88;;;4.30;;
64235;SDS011;50564;47.402;9.740;2022-08-25T20:25:05;4.72;;;4.07;;
64235;SDS011;50564;47.402;9.740;2022-08-25T20:30:20;6.13;;;4.75;;
64235;SDS011;50564;47.402;9.740;2022-08-25T20:35:27;6.80;;;4.60;;
64235;SDS011;50564;47.402;9.740;2022-08-25T20:40:46;4.88;;;4.28;;
64235;SDS011;50564;47.402;9.740;2022-08-25T20:45:58;5.53;;;4.03;;
64235;SDS011;50564;47.402;9.740;2022-08-25T20:51:06;6.10;;;4.20;;
64235;SDS011;50564;47.402;9.740;2022-08-25T20:56:08;6.20;;;4.30;;
64235;SDS011;50564;47.402;9.740;2022-08-25T21:01:15;8.52;;;4.45;;
64235;SDS011;50564;47.402;9.740;2022-08-25T21:06:19;4.93;;;4.07;;
64235;SDS011;50564;47.402;9.740;2022-08-25T21:11:20;5.60;;;4.35;;
64235;SDS011;50564;47.402;9.740;2022-08-25T21:16:23;6.10;;;4.53;;
64235;SDS011;50564;47.402;9.740;2022-08-25T21:21:24;5.75;;;4.10;;
64235;SDS011;50564;47.402;9.740;2022-08-25T21:26:26;4.95;;;3.78;;
64235;SDS011;50564;47.402;9.740;2022-08-25T21:31:28;6.88;;;4.00;;
64235;SDS011;50564;47.402;9.740;2022-08-25T21:36:29;5.25;;;3.80;;
64235;SDS011;50564;47.402;9.740;2022-08-25T21:41:33;6.88;;;3.78;;
64235;SDS011;50564;47.402;9.740;2022-08-25T21:46:34;4.88;;;3.92;;
64235;SDS011;50564;47.402;9.740;2022-08-25T21:51:40;6.57;;;4.15;;
64235;SDS011;50564;47.402;9.740;2022-08-25T21:57:04;6.30;;;3.65;;
64235;SDS011;50564;47.402;9.740;2022-08-25T22:02:05;5.70;;;4.40;;
64235;SDS011;50564;47.402;9.740;2022-08-25T22:07:07;5.50;;;4.00;;
64235;SDS011;50564;47.402;9.740;2022-08-25T22:12:08;5.57;;;3.90;;
64235;SDS011;50564;47.402;9.740;2022-08-25T22:17:09;4.40;;;3.72;;
64235;SDS011;50564;47.402;9.740;2022-08-25T22:22:10;4.88;;;4.00;;
64235;SDS011;50564;47.402;9.740;2022-08-25T22:27:10;6.03;;;3.55;;
64235;SDS011;50564;47.402;9.740;2022-08-25T22:32:13;4.75;;;4.03;;
64235;SDS011;50564;47.402;9.740;2022-08-25T22:37:13;4.32;;;3.70;;
64235;SDS011;50564;47.402;9.740;2022-08-25T22:42:16;4.40;;;3.78;;
64235;SDS011;50564;47.402;9.740;2022-08-25T22:47:17;5.78;;;3.78;;
64235;SDS011;50564;47.402;9.740;2022-08-25T22:52:18;5.93;;;3.78;;
64235;SDS011;50564;47.402;9.740;2022-08-25T22:57:19;5.40;;;3.45;;
64235;SDS011;50564;47.402;9.740;2022-08-25T23:02:20;6.85;;;3.10;;
64235;SDS011;50564;47.402;9.740;2022-08-25T23:07:20;6.05;;;3.80;;
64235;SDS011;50564;47.402;9.740;2022-08-25T23:12:22;3.65;;;3.03;;
64235;SDS011;50564;47.402;9.740;2022-08-25T23:17:24;4.28;;;3.13;;
64235;SDS011;50564;47.402;9.740;2022-08-25T23:22:28;4.47;;;3.13;;
64235;SDS011;50564;47.402;9.740;2022-08-25T23:27:28;3.25;;;2.83;;
64235;SDS011;50564;47.402;9.740;2022-08-25T23:32:29;3.22;;;2.92;;
64235;SDS011;50564;47.402;9.740;2022-08-25T23:37:30;4.05;;;3.13;;
64235;SDS011;50564;47.402;9.740;2022-08-25T23:42:30;5.95;;;3.05;;
64235;SDS011;50564;47.402;9.740;2022-08-25T23:47:32;4.38;;;3.05;;
64235;SDS011;50564;47.402;9.740;2022-08-25T23:52:32;5.68;;;3.20;;
64235;SDS011;50564;47.402;9.740;2022-08-25T23:57:33;6.22;;;3.50;;
